Time;durP1;ratioP1;P1;durP2;ratioP2;P2;SDS_P1;SDS_P2;PMS_P1;PMS_P2;Temp;Humidity;BMP_temperature;BMP_pressure;BME280_temperature;BME280_humidity;BME280_pressure;Samples;Min_cycle;Max_cycle;Signal;HPM_P1;HPM_P2
2022/04/12 00:01:33;;;;;;;7.67;2.60;;;7.60;99.90;;;;;;4957244;28;20223;-73
2022/04/12 00:04:00;;;;;;;4.33;2.40;;;7.60;99.90;;;;;;4957053;28;20174;-73
2022/04/12 00:06:26;;;;;;;5.23;2.40;;;7.50;99.90;;;;;;4940708;28;20175;-74
2022/04/12 00:08:51;;;;;;;6.87;3.33;;;7.60;99.90;;;;;;4938801;29;20751;-74
2022/04/12 00:11:17;;;;;;;6.50;2.33;;;7.50;99.90;;;;;;4956260;28;20714;-73
2022/04/12 00:13:43;;;;;;;6.87;2.87;;;7.50;99.90;;;;;;4957101;28;20206;-73
2022/04/12 00:16:08;;;;;;;5.83;2.90;;;7.50;99.90;;;;;;4956343;28;21831;-73
2022/04/12 00:21:18;;;;;;;6.00;2.33;;;7.50;99.90;;;;;;4965336;28;20214;-72
2022/04/12 00:23:44;;;;;;;7.47;2.80;;;7.50;99.90;;;;;;4958192;28;20211;-73
2022/04/12 00:26:09;;;;;;;6.77;2.73;;;7.40;99.90;;;;;;4938338;29;20687;-73
2022/04/12 00:28:35;;;;;;;4.47;2.37;;;7.40;99.90;;;;;;4954358;28;20219;-72
2022/04/12 00:31:00;;;;;;;4.50;2.40;;;7.40;99.90;;;;;;4954962;28;20207;-73
2022/04/12 00:33:25;;;;;;;7.17;2.80;;;7.40;99.90;;;;;;4955422;28;20300;-73
2022/04/12 00:35:52;;;;;;;5.50;2.13;;;7.40;99.90;;;;;;4937796;29;20210;-73
2022/04/12 00:38:18;;;;;;;5.50;2.20;;;7.30;99.90;;;;;;4954214;28;20218;-73
2022/04/12 00:40:45;;;;;;;6.37;2.70;;;7.40;99.90;;;;;;4954582;28;20226;-73
2022/04/12 00:43:11;;;;;;;5.30;2.63;;;7.30;99.90;;;;;;4955054;28;20233;-72
2022/04/12 00:45:36;;;;;;;6.93;2.57;;;7.30;99.90;;;;;;4938001;28;20191;-73
2022/04/12 00:48:02;;;;;;;6.17;2.70;;;7.30;99.90;;;;;;4953881;28;20234;-72
2022/04/12 00:50:28;;;;;;;4.23;2.43;;;7.20;99.90;;;;;;4954172;28;20269;-73
2022/04/12 00:52:56;;;;;;;4.43;2.63;;;7.20;99.90;;;;;;4954363;28;20281;-73
2022/04/12 00:55:21;;;;;;;4.77;2.50;;;7.20;99.90;;;;;;4954200;28;20233;-73
2022/04/12 00:57:48;;;;;;;5.80;2.80;;;7.10;99.90;;;;;;4954559;28;20191;-74
2022/04/12 01:00:16;;;;;;;6.07;2.97;;;7.10;99.90;;;;;;4953813;28;20227;-73
2022/04/12 01:02:42;;;;;;;8.30;3.00;;;7.10;99.90;;;;;;4954109;28;20708;-72
2022/04/12 01:05:08;;;;;;;6.80;2.43;;;7.00;99.90;;;;;;4953695;28;20214;-74
2022/04/12 01:07:35;;;;;;;4.77;2.90;;;7.10;99.90;;;;;;4953819;28;20211;-73
2022/04/12 01:10:00;;;;;;;6.03;3.20;;;7.00;99.90;;;;;;4936335;29;20199;-73
2022/04/12 01:12:30;;;;;;;6.03;2.90;;;7.00;99.90;;;;;;4937638;28;20175;-73
2022/04/12 01:15:15;;;;;;;8.47;2.90;;;7.00;99.90;;;;;;4954146;28;20210;-74
2022/04/12 01:17:42;;;;;;;6.23;2.97;;;6.90;99.90;;;;;;4936599;28;20223;-72
2022/04/12 01:20:08;;;;;;;6.40;3.23;;;6.90;99.90;;;;;;4953385;28;20655;-73
2022/04/12 01:22:40;;;;;;;5.77;2.87;;;6.90;99.90;;;;;;4953746;28;20223;-73
2022/04/12 01:25:06;;;;;;;7.33;3.10;;;6.90;99.90;;;;;;4954620;28;20201;-73
2022/04/12 01:27:31;;;;;;;7.77;3.20;;;6.90;99.90;;;;;;4954396;28;20195;-74
2022/04/12 01:29:58;;;;;;;5.60;2.90;;;6.80;99.90;;;;;;4953130;28;20218;-73
2022/04/12 01:32:25;;;;;;;7.90;3.07;;;6.80;99.90;;;;;;4953626;28;20586;-72
2022/04/12 01:34:50;;;;;;;6.23;3.23;;;6.80;99.90;;;;;;4936498;29;20203;-72
2022/04/12 01:37:16;;;;;;;5.13;3.10;;;6.80;99.90;;;;;;4953571;28;20265;-72
2022/04/12 01:39:41;;;;;;;8.33;3.47;;;6.90;99.90;;;;;;4952955;28;20202;-73
2022/04/12 01:42:07;;;;;;;4.07;2.43;;;6.80;99.90;;;;;;4953458;28;20211;-73
2022/04/12 01:44:33;;;;;;;4.13;2.63;;;6.80;99.90;;;;;;4953393;28;20278;-73
2022/04/12 01:46:58;;;;;;;6.50;3.23;;;6.70;99.90;;;;;;4953464;28;20282;-73
2022/04/12 01:49:23;;;;;;;5.40;2.43;;;6.80;99.90;;;;;;4935263;28;20727;-73
2022/04/12 01:51:49;;;;;;;6.67;3.03;;;6.70;99.90;;;;;;4953708;28;20188;-73
2022/04/12 01:54:15;;;;;;;7.50;3.43;;;6.60;99.90;;;;;;4953845;28;20186;-73
2022/04/12 01:56:40;;;;;;;4.30;2.90;;;6.60;99.90;;;;;;4953279;28;20219;-73
2022/04/12 01:59:06;;;;;;;7.87;3.20;;;6.60;99.90;;;;;;4952455;28;20302;-74
2022/04/12 02:01:31;;;;;;;8.33;2.97;;;6.60;99.90;;;;;;4935795;28;20222;-73
2022/04/12 02:03:57;;;;;;;7.03;3.10;;;6.50;99.90;;;;;;4935851;29;20182;-74
2022/04/12 02:06:23;;;;;;;5.23;3.23;;;6.50;99.90;;;;;;4936366;28;20186;-73
2022/04/12 02:08:48;;;;;;;5.57;2.87;;;6.50;99.90;;;;;;4935284;29;20211;-73
2022/04/12 02:11:14;;;;;;;6.70;2.77;;;6.50;99.90;;;;;;4953262;28;20229;-74
2022/04/12 02:13:39;;;;;;;7.17;3.00;;;6.50;99.90;;;;;;4935838;28;20214;-72
2022/04/12 02:16:05;;;;;;;5.27;3.70;;;6.50;99.90;;;;;;4957443;28;20190;-73
2022/04/12 02:18:31;;;;;;;7.80;3.40;;;6.40;99.90;;;;;;4958032;28;20241;-74
2022/04/12 02:20:56;;;;;;;3.93;2.73;;;6.40;99.90;;;;;;4947391;28;20215;-74
2022/04/12 02:23:22;;;;;;;5.10;3.03;;;6.40;99.90;;;;;;4952749;28;20222;-72
2022/04/12 02:25:48;;;;;;;5.03;2.80;;;6.30;99.90;;;;;;4953006;28;20707;-73
2022/04/12 02:28:15;;;;;;;4.63;2.97;;;6.30;99.90;;;;;;4952199;28;20214;-74
2022/04/12 02:30:40;;;;;;;6.03;3.33;;;6.20;99.90;;;;;;4953005;28;20318;-73
2022/04/12 02:33:06;;;;;;;5.87;3.20;;;6.20;99.90;;;;;;4952771;28;20306;-73
2022/04/12 02:35:31;;;;;;;7.37;3.27;;;6.10;99.90;;;;;;4952415;28;20295;-73
2022/04/12 02:37:57;;;;;;;9.60;3.33;;;6.10;99.90;;;;;;4951904;28;20218;-71
2022/04/12 02:40:22;;;;;;;7.63;3.20;;;6.00;99.90;;;;;;4952344;28;20214;-73
2022/04/12 02:42:48;;;;;;;6.47;3.17;;;6.00;99.90;;;;;;4936016;29;20210;-74
2022/04/12 02:45:13;;;;;;;7.17;3.17;;;5.90;99.90;;;;;;4952692;28;20684;-72
2022/04/12 02:47:38;;;;;;;8.77;3.63;;;6.00;99.90;;;;;;4934826;28;20218;-71
2022/04/12 02:50:05;;;;;;;6.63;3.37;;;5.90;99.90;;;;;;4951777;28;20286;-73
2022/04/12 02:52:31;;;;;;;7.30;3.40;;;5.90;99.90;;;;;;4950537;28;20207;-72
2022/04/12 02:54:56;;;;;;;6.50;3.00;;;5.90;99.90;;;;;;4952540;28;20749;-73
2022/04/12 02:57:22;;;;;;;9.33;3.73;;;5.90;99.90;;;;;;4952849;28;20179;-73
2022/04/12 02:59:47;;;;;;;5.97;3.60;;;5.80;99.90;;;;;;4934517;29;20286;-73
2022/04/12 03:02:13;;;;;;;8.07;3.70;;;5.80;99.90;;;;;;4952364;28;20577;-73
2022/04/12 03:04:40;;;;;;;8.97;3.53;;;5.80;99.90;;;;;;4952506;28;20314;-73
2022/04/12 03:07:06;;;;;;;8.33;3.40;;;5.80;99.90;;;;;;4952446;28;20178;-73
2022/04/12 03:09:31;;;;;;;8.03;3.43;;;5.80;99.90;;;;;;4952063;28;20289;-72
2022/04/12 03:11:57;;;;;;;8.57;3.70;;;5.80;99.90;;;;;;4952490;28;20711;-73
2022/04/12 03:14:22;;;;;;;8.83;3.40;;;5.70;99.90;;;;;;4952277;28;20222;-71
2022/04/12 03:16:48;;;;;;;5.80;3.80;;;5.70;99.90;;;;;;4935281;29;20214;-72
2022/04/12 03:19:13;;;;;;;10.20;3.83;;;5.70;99.90;;;;;;4934256;28;20230;-72
2022/04/12 03:21:39;;;;;;;7.73;3.97;;;5.60;99.90;;;;;;4952165;28;20231;-72
2022/04/12 03:24:05;;;;;;;10.07;3.80;;;5.60;99.90;;;;;;4952356;28;20282;-73
2022/04/12 03:26:30;;;;;;;5.40;3.53;;;5.60;99.90;;;;;;4952127;28;20270;-72
2022/04/12 03:28:56;;;;;;;7.73;3.60;;;5.70;99.90;;;;;;4954772;28;20214;-72
2022/04/12 03:31:22;;;;;;;8.03;3.57;;;5.70;99.90;;;;;;4955686;28;20258;-72
2022/04/12 03:33:47;;;;;;;6.93;3.80;;;5.70;99.90;;;;;;4956227;28;20197;-73
2022/04/12 03:36:13;;;;;;;6.03;3.70;;;5.80;99.90;;;;;;4955948;28;20211;-73
2022/04/12 03:38:48;;;;;;;6.87;3.80;;;5.70;99.90;;;;;;4954970;28;20668;-73
2022/04/12 03:41:19;;;;;;;9.17;3.90;;;5.70;99.90;;;;;;4938632;29;20353;-73
2022/04/12 03:43:45;;;;;;;8.77;4.17;;;5.60;99.90;;;;;;4955598;28;20602;-73
2022/04/12 03:46:11;;;;;;;10.90;4.00;;;5.70;99.90;;;;;;4955726;28;20234;-73
2022/04/12 03:48:36;;;;;;;6.23;3.87;;;5.60;99.90;;;;;;4929916;28;20641;-72
2022/04/12 03:51:02;;;;;;;6.83;4.07;;;5.70;99.90;;;;;;4955186;28;20342;-73
2022/04/12 03:53:27;;;;;;;9.10;4.17;;;5.70;99.90;;;;;;4955342;28;20209;-73
2022/04/12 03:55:55;;;;;;;8.03;3.67;;;5.60;99.90;;;;;;4955542;28;20242;-73
2022/04/12 03:58:20;;;;;;;6.80;4.17;;;5.60;99.90;;;;;;4954793;28;20202;-73
2022/04/12 04:00:46;;;;;;;7.33;3.87;;;5.60;99.90;;;;;;4956882;23;20581;-72
2022/04/12 04:03:11;;;;;;;6.50;3.70;;;5.60;99.90;;;;;;4919074;29;20554;-72
2022/04/12 04:05:37;;;;;;;7.10;4.20;;;5.60;99.90;;;;;;4935924;28;20271;-71
2022/04/12 04:08:02;;;;;;;9.13;4.43;;;5.60;99.90;;;;;;4935176;28;20207;-72
2022/04/12 04:10:28;;;;;;;7.23;4.17;;;5.60;99.90;;;;;;4919779;28;20216;-72
2022/04/12 04:12:53;;;;;;;10.17;4.70;;;5.60;99.90;;;;;;4955243;28;20192;-72
2022/04/12 04:15:19;;;;;;;10.97;4.20;;;5.70;99.90;;;;;;4938571;29;20254;-72
2022/04/12 04:17:45;;;;;;;10.40;4.57;;;5.70;99.90;;;;;;4954792;28;20214;-72
2022/04/12 04:20:13;;;;;;;9.30;4.43;;;5.60;99.90;;;;;;4951702;28;20269;-71
2022/04/12 04:22:42;;;;;;;7.53;4.47;;;5.60;99.90;;;;;;4954751;28;20249;-72
2022/04/12 04:25:08;;;;;;;9.70;4.80;;;5.60;99.90;;;;;;4955036;28;20198;-72
2022/04/12 04:27:35;;;;;;;8.43;4.00;;;5.60;99.90;;;;;;4953639;28;20322;-72
2022/04/12 04:30:02;;;;;;;7.77;4.40;;;5.60;99.90;;;;;;4954180;28;20667;-72
2022/04/12 04:32:28;;;;;;;8.13;4.60;;;5.60;99.90;;;;;;4954484;28;20243;-71
2022/04/12 04:34:53;;;;;;;10.97;4.37;;;5.80;99.90;;;;;;4937528;29;20606;-72
2022/04/12 04:37:19;;;;;;;8.60;4.60;;;5.80;99.90;;;;;;4954570;28;20211;-71
2022/04/12 04:39:44;;;;;;;7.47;5.03;;;5.80;99.90;;;;;;4951222;28;20241;-72
2022/04/12 04:42:10;;;;;;;10.63;4.30;;;5.90;99.90;;;;;;4937306;29;20214;-72
2022/04/12 04:44:35;;;;;;;8.97;5.10;;;5.90;99.90;;;;;;4954606;28;20226;-72
2022/04/12 04:47:01;;;;;;;7.30;4.20;;;6.40;99.90;;;;;;4954668;28;20210;-72
2022/04/12 04:49:26;;;;;;;9.43;4.77;;;8.00;99.90;;;;;;4953800;28;20207;-73
2022/04/12 04:51:52;;;;;;;9.53;4.27;;;9.00;99.90;;;;;;4954466;28;20265;-72
2022/04/12 04:54:17;;;;;;;9.80;4.10;;;10.20;99.90;;;;;;4937545;29;20191;-73
2022/04/12 04:56:43;;;;;;;7.43;4.33;;;11.10;99.90;;;;;;4954002;28;20351;-72
2022/04/12 04:59:11;;;;;;;10.73;4.13;;;11.80;99.90;;;;;;4953639;28;20696;-72
2022/04/12 05:01:37;;;;;;;7.07;4.63;;;12.00;99.90;;;;;;4953941;28;20234;-72
2022/04/12 05:04:02;;;;;;;7.17;4.13;;;11.90;99.90;;;;;;4937016;29;20175;-72
2022/04/12 05:06:28;;;;;;;6.80;4.57;;;12.30;99.90;;;;;;4954528;28;20199;-73
2022/04/12 05:08:53;;;;;;;10.13;4.43;;;12.70;99.90;;;;;;4953555;28;20270;-72
2022/04/12 05:11:19;;;;;;;8.77;4.97;;;12.40;99.90;;;;;;4953834;28;20208;-73
2022/04/12 05:13:44;;;;;;;11.13;4.77;;;12.00;99.90;;;;;;4953705;28;20211;-72
2022/04/12 05:16:10;;;;;;;11.60;3.87;;;12.10;99.90;;;;;;4954146;28;20217;-72
2022/04/12 05:18:35;;;;;;;8.13;4.73;;;11.90;99.90;;;;;;4953674;28;20187;-72
2022/04/12 05:21:01;;;;;;;9.83;4.93;;;11.60;99.90;;;;;;4953837;28;20628;-72
2022/04/12 05:23:26;;;;;;;6.73;4.03;;;12.70;99.90;;;;;;4953716;28;20223;-72
2022/04/12 05:25:53;;;;;;;12.53;4.77;;;12.60;99.90;;;;;;4936555;29;20722;-72
2022/04/12 05:28:22;;;;;;;9.70;4.60;;;12.90;99.90;;;;;;4953197;28;20206;-72
2022/04/12 05:30:48;;;;;;;8.03;4.43;;;13.20;99.90;;;;;;4936898;29;20198;-75
2022/04/12 05:33:14;;;;;;;9.27;3.77;;;13.10;99.90;;;;;;4953675;28;20218;-73
2022/04/12 05:35:39;;;;;;;7.00;4.70;;;13.70;99.90;;;;;;4936255;28;20211;-72
2022/04/12 05:38:06;;;;;;;12.30;4.38;;;14.30;99.90;;;;;;4952839;28;20242;-72
2022/04/12 05:40:33;;;;;;;11.32;5.03;;;14.80;99.90;;;;;;4935931;28;20361;-74
2022/04/12 05:42:58;;;;;;;8.10;4.43;;;15.60;99.90;;;;;;4953351;28;20585;-73
2022/04/12 05:45:24;;;;;;;10.68;4.68;;;16.90;99.90;;;;;;4953803;28;20175;-74
2022/04/12 05:47:52;;;;;;;10.45;4.72;;;16.50;99.90;;;;;;4953611;28;20228;-73
2022/04/12 05:50:19;;;;;;;9.77;4.68;;;17.00;99.70;;;;;;4953231;28;20219;-72
2022/04/12 05:52:44;;;;;;;8.10;4.45;;;17.90;97.70;;;;;;4953631;28;20223;-73
2022/04/12 05:55:12;;;;;;;9.50;4.13;;;17.90;95.90;;;;;;4953174;28;20680;-73
2022/04/12 05:57:46;;;;;;;8.82;3.70;;;17.30;95.80;;;;;;4936559;28;20191;-73
2022/04/12 06:00:12;;;;;;;10.10;4.88;;;17.60;94.70;;;;;;4952682;28;20218;-73
2022/04/12 06:02:38;;;;;;;5.55;4.10;;;16.30;95.20;;;;;;4953001;28;20222;-73
2022/04/12 06:05:03;;;;;;;8.50;4.85;;;16.90;95.60;;;;;;4953282;28;20223;-73
2022/04/12 06:07:34;;;;;;;10.32;4.45;;;17.10;94.40;;;;;;4952905;28;20564;-73
2022/04/12 06:10:00;;;;;;;9.50;4.25;;;17.10;93.40;;;;;;4952282;28;20286;-72
2022/04/12 06:12:26;;;;;;;8.85;4.45;;;16.40;94.50;;;;;;4953411;28;20191;-73
2022/04/12 06:14:52;;;;;;;9.20;4.28;;;15.50;94.30;;;;;;4935705;29;20210;-73
2022/04/12 06:17:17;;;;;;;8.68;4.50;;;16.00;95.40;;;;;;4953002;28;20269;-73
2022/04/12 06:19:43;;;;;;;8.07;4.38;;;16.40;94.70;;;;;;4952026;28;20238;-74
2022/04/12 06:22:08;;;;;;;7.15;4.28;;;16.80;94.00;;;;;;4952828;28;22773;-71
2022/04/12 06:24:34;;;;;;;7.38;4.75;;;17.50;92.20;;;;;;4953202;28;20699;-72
2022/04/12 06:26:59;;;;;;;9.00;4.38;;;17.90;92.00;;;;;;4952768;28;20218;-73
2022/04/12 06:29:25;;;;;;;12.32;4.80;;;17.80;90.90;;;;;;4934678;28;20238;-72
2022/04/12 06:31:51;;;;;;;8.82;4.90;;;18.20;91.30;;;;;;4952652;28;20290;-72
2022/04/12 06:34:16;;;;;;;7.72;4.43;;;19.40;87.80;;;;;;4952864;28;20290;-72
2022/04/12 06:36:42;;;;;;;8.57;4.72;;;18.90;86.20;;;;;;4953061;28;20186;-73
2022/04/12 06:39:07;;;;;;;8.57;4.43;;;19.40;85.50;;;;;;4951850;28;20215;-73
2022/04/12 06:41:33;;;;;;;10.40;4.68;;;19.60;83.10;;;;;;4952131;28;20215;-72
2022/04/12 06:43:58;;;;;;;10.38;5.78;;;19.50;81.90;;;;;;4952761;28;20215;-72
2022/04/12 06:46:23;;;;;;;9.52;5.15;;;17.80;83.70;;;;;;4952567;28;20601;-72
2022/04/12 06:48:49;;;;;;;10.60;4.88;;;18.50;85.90;;;;;;4952482;28;20175;-73
2022/04/12 06:51:14;;;;;;;8.68;5.10;;;18.80;84.20;;;;;;4952608;28;20250;-72
2022/04/12 06:53:40;;;;;;;10.75;5.38;;;18.00;83.00;;;;;;4952544;28;20656;-72
2022/04/12 06:56:06;;;;;;;8.32;4.80;;;18.40;84.00;;;;;;4952717;28;20221;-73
2022/04/12 06:58:33;;;;;;;9.93;5.65;;;17.60;83.70;;;;;;4951704;28;20225;-73
2022/04/12 07:00:58;;;;;;;8.18;4.47;;;18.00;83.40;;;;;;4952448;28;20206;-72
2022/04/12 07:03:24;;;;;;;8.65;5.63;;;19.10;81.90;;;;;;4955503;28;20265;-72
2022/04/12 07:05:55;;;;;;;9.05;4.90;;;18.60;81.60;;;;;;4939017;29;20210;-72
2022/04/12 07:08:22;;;;;;;9.63;4.90;;;17.80;82.80;;;;;;4955431;28;20205;-71
2022/04/12 07:10:47;;;;;;;7.97;4.68;;;18.40;82.60;;;;;;4938755;29;20214;-73
2022/04/12 07:13:13;;;;;;;9.35;4.80;;;20.10;80.70;;;;;;4956014;28;20210;-72
2022/04/12 07:15:39;;;;;;;7.95;4.95;;;18.40;79.60;;;;;;4956403;28;20210;-72
2022/04/12 07:18:04;;;;;;;11.65;5.85;;;18.90;81.60;;;;;;4955481;28;20236;-71
2022/04/12 07:20:30;;;;;;;8.70;4.72;;;19.10;80.00;;;;;;4938443;28;20718;-72
2022/04/12 07:22:55;;;;;;;7.18;5.22;;;18.30;80.50;;;;;;4939017;29;20298;-72
2022/04/12 07:25:21;;;;;;;8.77;5.05;;;18.00;80.70;;;;;;4956061;28;20294;-72
2022/04/12 07:27:46;;;;;;;10.63;5.47;;;18.90;80.90;;;;;;4939064;29;20657;-72
2022/04/12 07:30:12;;;;;;;8.07;5.22;;;21.70;76.20;;;;;;4955484;28;20234;-73
2022/04/12 07:32:38;;;;;;;8.63;4.88;;;21.40;72.00;;;;;;4955769;28;20757;-73
2022/04/12 07:35:05;;;;;;;10.05;4.80;;;20.00;74.80;;;;;;4955803;28;20372;-73
2022/04/12 07:37:31;;;;;;;8.50;4.82;;;20.60;75.00;;;;;;4938637;28;20584;-72
2022/04/12 07:39:56;;;;;;;11.57;5.40;;;19.80;77.00;;;;;;4954877;28;20300;-72
2022/04/12 07:42:23;;;;;;;8.45;4.75;;;20.00;75.40;;;;;;4938817;28;20207;-73
2022/04/12 07:44:48;;;;;;;5.93;4.03;;;20.10;76.20;;;;;;4955842;28;20601;-73
2022/04/12 07:47:14;;;;;;;9.40;4.80;;;20.30;73.90;;;;;;4955874;28;20215;-72
2022/04/12 07:49:39;;;;;;;9.07;5.03;;;19.20;75.10;;;;;;4937526;28;20330;-72
2022/04/12 07:52:06;;;;;;;9.27;4.80;;;18.50;77.20;;;;;;4955632;28;20193;-72
2022/04/12 07:54:31;;;;;;;7.15;4.72;;;18.00;78.90;;;;;;4954051;28;20171;-73
2022/04/12 07:56:57;;;;;;;8.50;5.28;;;18.00;79.10;;;;;;4938207;29;20219;-72
2022/04/12 07:59:22;;;;;;;8.18;4.43;;;18.30;79.70;;;;;;4954555;28;20207;-72
2022/04/12 08:01:47;;;;;;;7.47;4.68;;;18.90;77.90;;;;;;4937979;29;20269;-73
2022/04/12 08:04:13;;;;;;;9.35;4.85;;;18.50;77.40;;;;;;4955590;28;20709;-72
2022/04/12 08:06:38;;;;;;;16.55;11.30;;;18.90;78.10;;;;;;4955728;28;20183;-71
2022/04/12 08:09:04;;;;;;;17.00;11.77;;;18.20;78.20;;;;;;4937540;29;20651;-73
2022/04/12 08:11:31;;;;;;;14.20;6.32;;;18.20;78.00;;;;;;4937871;28;20285;-72
2022/04/12 08:13:57;;;;;;;16.33;10.13;;;18.20;78.40;;;;;;4954201;28;20207;-72
2022/04/12 08:16:23;;;;;;;13.90;7.95;;;17.60;79.40;;;;;;4938236;28;20587;-72
2022/04/12 08:18:48;;;;;;;11.50;5.20;;;17.80;79.70;;;;;;4955130;28;20652;-72
2022/04/12 08:21:14;;;;;;;7.07;4.32;;;18.60;78.00;;;;;;4955088;28;20223;-72
2022/04/12 08:23:39;;;;;;;9.93;5.25;;;17.90;76.90;;;;;;4954820;28;20215;-73
2022/04/12 08:26:05;;;;;;;8.43;4.07;;;17.30;79.60;;;;;;4937899;29;20222;-72
2022/04/12 08:28:30;;;;;;;10.63;6.43;;;17.50;80.00;;;;;;4953893;28;20225;-73
2022/04/12 08:30:55;;;;;;;6.60;4.25;;;17.50;79.70;;;;;;4937248;28;20286;-74
2022/04/12 08:33:21;;;;;;;5.85;3.90;;;18.50;78.30;;;;;;4938148;28;20175;-73
2022/04/12 08:35:46;;;;;;;8.43;4.88;;;19.00;77.40;;;;;;4938486;29;20270;-72
2022/04/12 08:38:12;;;;;;;8.35;4.80;;;19.10;75.10;;;;;;4953941;28;20248;-73
2022/04/12 08:40:40;;;;;;;8.05;5.30;;;17.70;76.60;;;;;;4953569;28;20967;-70
2022/04/12 08:43:07;;;;;;;9.15;4.78;;;17.00;78.40;;;;;;4953733;28;20261;-72
2022/04/12 08:45:35;;;;;;;7.55;4.35;;;16.60;79.50;;;;;;4936692;28;20194;-71
2022/04/12 08:48:02;;;;;;;9.52;4.38;;;16.30;80.30;;;;;;4953461;28;20203;-73
2022/04/12 08:50:28;;;;;;;8.57;4.53;;;16.10;80.80;;;;;;4953831;28;20662;-71
2022/04/12 08:52:54;;;;;;;9.55;4.40;;;16.10;80.60;;;;;;4936338;29;20289;-70
2022/04/12 08:55:20;;;;;;;7.43;4.47;;;15.90;80.90;;;;;;4936063;29;20214;-72
2022/04/12 08:57:46;;;;;;;10.23;4.63;;;15.70;80.50;;;;;;4945591;28;20176;-71
2022/04/12 09:00:12;;;;;;;7.47;4.40;;;14.90;82.40;;;;;;4953372;28;20211;-72
2022/04/12 09:02:39;;;;;;;8.00;4.30;;;14.90;83.00;;;;;;4953978;28;20597;-72
2022/04/12 09:05:08;;;;;;;10.60;4.67;;;15.10;84.10;;;;;;4936974;29;20210;-72
2022/04/12 09:07:44;;;;;;;9.45;4.95;;;15.30;83.90;;;;;;4953945;28;20226;-72
2022/04/12 09:10:09;;;;;;;6.50;4.50;;;15.20;83.20;;;;;;4953511;28;20218;-71
2022/04/12 09:12:36;;;;;;;6.85;4.95;;;15.10;83.00;;;;;;4954420;28;20334;-73
2022/04/12 09:15:08;;;;;;;6.13;4.07;;;15.10;83.20;;;;;;4954160;28;20215;-73
2022/04/12 09:17:39;;;;;;;7.77;4.47;;;15.00;84.60;;;;;;4953913;28;20307;-72
2022/04/12 09:20:27;;;;;;;8.20;4.90;;;15.50;83.40;;;;;;4953802;28;20219;-73
2022/04/12 09:22:52;;;;;;;9.60;5.05;;;15.20;82.60;;;;;;4946995;28;20218;-72
2022/04/12 09:25:18;;;;;;;7.75;4.50;;;15.30;82.70;;;;;;4936246;29;20291;-73
2022/04/12 09:27:49;;;;;;;7.75;4.72;;;15.80;82.90;;;;;;4954412;28;20183;-73
2022/04/12 09:30:15;;;;;;;7.50;4.78;;;16.40;82.00;;;;;;4953602;28;20221;-72
2022/04/12 09:32:44;;;;;;;12.70;5.05;;;16.30;81.60;;;;;;4953657;28;20225;-72
2022/04/12 09:35:10;;;;;;;11.07;5.53;;;15.70;82.50;;;;;;4953575;28;20237;-73
2022/04/12 09:37:38;;;;;;;9.02;4.65;;;15.40;83.30;;;;;;4953609;28;20889;-72
2022/04/12 09:40:14;;;;;;;7.70;4.60;;;15.30;83.80;;;;;;4953168;28;20203;-72
2022/04/12 09:42:55;;;;;;;9.75;5.03;;;15.70;83.50;;;;;;4954131;28;20286;-72
2022/04/12 09:45:28;;;;;;;8.07;5.32;;;16.30;82.40;;;;;;4953839;28;20210;-73
2022/04/12 09:47:55;;;;;;;7.75;4.90;;;15.90;82.00;;;;;;4953364;28;20226;-72
2022/04/12 09:50:22;;;;;;;8.57;4.90;;;15.90;82.90;;;;;;4953020;28;20258;-72
2022/04/12 09:53:02;;;;;;;12.50;4.85;;;15.50;83.00;;;;;;4936032;29;20231;-74
2022/04/12 09:55:49;;;;;;;7.40;5.65;;;15.60;82.90;;;;;;4953222;28;20209;-73
2022/04/12 09:58:17;;;;;;;8.40;5.22;;;15.70;83.70;;;;;;4952763;28;20234;-73
2022/04/12 10:00:45;;;;;;;8.32;5.10;;;15.40;84.00;;;;;;4966295;23;20211;-74
2022/04/12 10:03:12;;;;;;;8.23;4.13;;;15.50;83.90;;;;;;4936045;29;20223;-74
2022/04/12 10:05:39;;;;;;;8.95;4.50;;;15.90;82.80;;;;;;4953154;28;20304;-74
2022/04/12 10:08:10;;;;;;;7.82;4.70;;;15.70;81.80;;;;;;4952410;28;20281;-74
2022/04/12 10:10:36;;;;;;;7.07;4.80;;;15.70;82.50;;;;;;4952694;28;20207;-72
2022/04/12 10:13:01;;;;;;;7.93;4.85;;;15.90;82.30;;;;;;4935848;28;20271;-73
2022/04/12 10:15:28;;;;;;;16.33;4.95;;;16.30;81.40;;;;;;4953654;28;20186;-74
2022/04/12 10:17:54;;;;;;;7.90;4.30;;;15.90;81.40;;;;;;4935516;29;20214;-74
2022/04/12 10:20:22;;;;;;;6.43;4.50;;;16.10;81.60;;;;;;4935243;29;20237;-74
2022/04/12 10:22:49;;;;;;;5.47;4.15;;;16.00;81.80;;;;;;4944993;28;20218;-74
2022/04/12 10:25:23;;;;;;;6.72;4.75;;;16.40;81.80;;;;;;4935599;29;20249;-74
2022/04/12 10:27:51;;;;;;;6.57;4.25;;;16.70;78.90;;;;;;4952681;28;20194;-73
2022/04/12 10:30:17;;;;;;;11.07;4.60;;;16.40;79.80;;;;;;4935555;29;20222;-74
2022/04/12 10:33:03;;;;;;;5.18;3.78;;;16.20;80.40;;;;;;4952660;28;20703;-75
2022/04/12 10:35:54;;;;;;;9.63;4.60;;;16.20;81.20;;;;;;4952770;28;20217;-74
2022/04/12 10:38:22;;;;;;;9.98;4.07;;;16.50;80.30;;;;;;4945392;28;20257;-74
2022/04/12 10:40:53;;;;;;;6.53;4.47;;;16.30;80.60;;;;;;4935555;29;20232;-74
2022/04/12 10:43:33;;;;;;;7.97;4.07;;;15.90;80.50;;;;;;4952815;28;20311;-74
2022/04/12 10:46:01;;;;;;;10.05;5.93;;;15.90;81.70;;;;;;4936010;29;20171;-74
2022/04/12 10:48:28;;;;;;;6.80;4.72;;;15.90;81.80;;;;;;4935939;28;20175;-74
2022/04/12 10:50:56;;;;;;;6.70;4.68;;;15.90;82.70;;;;;;4953823;28;20246;-74
2022/04/12 10:53:37;;;;;;;8.73;4.13;;;15.90;82.40;;;;;;4936485;28;20707;-73
2022/04/12 10:56:09;;;;;;;12.93;5.00;;;16.30;82.30;;;;;;4936111;29;20689;-73
2022/04/12 10:58:36;;;;;;;7.65;5.15;;;16.80;81.30;;;;;;4953534;28;20215;-73
2022/04/12 11:01:03;;;;;;;7.90;5.15;;;16.20;81.50;;;;;;4953070;28;20341;-73
2022/04/12 11:03:40;;;;;;;10.50;4.80;;;16.40;81.90;;;;;;4936669;28;20297;-73
2022/04/12 11:06:14;;;;;;;7.85;4.60;;;16.40;80.20;;;;;;4953317;28;20222;-73
2022/04/12 11:08:51;;;;;;;7.57;4.68;;;16.40;81.20;;;;;;4935337;28;20299;-73
2022/04/12 11:11:27;;;;;;;9.25;5.13;;;16.10;82.90;;;;;;4952132;28;20219;-72
2022/04/12 11:13:53;;;;;;;8.00;4.90;;;16.00;82.60;;;;;;4949489;28;20214;-74
2022/04/12 11:16:20;;;;;;;6.43;4.93;;;15.70;81.70;;;;;;4952865;28;20222;-73
2022/04/12 11:18:55;;;;;;;8.77;5.10;;;15.80;79.70;;;;;;4949005;28;20183;-73
2022/04/12 11:21:23;;;;;;;5.88;4.10;;;15.90;81.80;;;;;;4953110;28;20293;-74
2022/04/12 11:23:55;;;;;;;7.43;5.00;;;16.10;82.90;;;;;;4951899;28;20219;-74
2022/04/12 11:26:46;;;;;;;9.77;5.43;;;16.50;81.60;;;;;;4952153;28;20218;-73
2022/04/12 11:29:23;;;;;;;6.78;4.50;;;16.50;80.20;;;;;;4948085;28;20214;-75
2022/04/12 11:31:53;;;;;;;8.27;4.30;;;16.60;80.20;;;;;;4951215;28;20293;-75
2022/04/12 11:34:20;;;;;;;9.45;4.93;;;16.40;77.60;;;;;;4954295;28;20218;-75
2022/04/12 11:36:54;;;;;;;6.80;5.38;;;16.00;80.60;;;;;;4928869;29;20552;-73
2022/04/12 11:39:25;;;;;;;8.50;5.32;;;16.00;82.10;;;;;;4952370;28;20203;-74
2022/04/12 11:41:55;;;;;;;8.60;5.38;;;16.00;82.30;;;;;;4945201;28;20226;-73
2022/04/12 11:44:21;;;;;;;9.90;4.60;;;16.30;83.10;;;;;;4940080;28;20731;-74
2022/04/12 11:46:57;;;;;;;8.30;5.15;;;16.40;81.30;;;;;;4954215;28;20203;-74
2022/04/12 11:49:32;;;;;;;8.90;5.38;;;16.40;80.20;;;;;;4958046;28;20190;-74
2022/04/12 11:52:00;;;;;;;9.68;4.78;;;16.20;81.80;;;;;;4959733;28;20217;-74
2022/04/12 11:54:30;;;;;;;7.20;5.22;;;16.20;82.20;;;;;;4957619;28;20660;-74
2022/04/12 11:57:08;;;;;;;8.57;4.82;;;16.20;81.90;;;;;;4960295;28;20207;-74
2022/04/12 11:59:36;;;;;;;7.40;4.20;;;16.60;81.50;;;;;;4938026;28;20282;-73
2022/04/12 12:02:04;;;;;;;11.18;4.93;;;16.90;80.20;;;;;;4955743;28;20234;-73
2022/04/12 12:04:31;;;;;;;8.48;4.50;;;16.80;79.40;;;;;;4955871;28;20207;-73
2022/04/12 12:07:00;;;;;;;7.28;4.10;;;16.20;78.20;;;;;;4943977;28;20167;-73
2022/04/12 12:09:26;;;;;;;6.55;4.40;;;16.10;79.10;;;;;;4959404;28;20230;-74
2022/04/12 12:11:56;;;;;;;7.88;4.63;;;16.50;78.20;;;;;;4938824;29;20601;-74
2022/04/12 12:14:21;;;;;;;5.38;3.72;;;16.40;76.30;;;;;;4955293;28;20742;-74
2022/04/12 12:17:08;;;;;;;6.50;4.90;;;16.60;76.60;;;;;;4938387;29;20210;-75
2022/04/12 12:19:38;;;;;;;8.20;4.20;;;16.80;76.60;;;;;;4937500;28;20596;-75
2022/04/12 12:22:04;;;;;;;6.25;4.07;;;16.80;77.00;;;;;;4955253;28;20211;-74
2022/04/12 12:24:30;;;;;;;6.57;4.13;;;16.40;77.90;;;;;;4956162;28;20215;-75
2022/04/12 12:26:56;;;;;;;7.13;4.38;;;16.50;78.00;;;;;;4955270;28;20270;-75
2022/04/12 12:29:26;;;;;;;7.15;4.13;;;16.50;77.40;;;;;;4937428;28;20234;-73
2022/04/12 12:31:56;;;;;;;9.90;4.47;;;16.70;78.30;;;;;;4938160;29;20215;-74
2022/04/12 12:34:32;;;;;;;8.98;4.00;;;16.50;78.20;;;;;;4955197;28;20641;-74
2022/04/12 12:37:05;;;;;;;4.40;3.88;;;16.60;79.50;;;;;;4958382;28;20252;-75
2022/04/12 12:39:36;;;;;;;6.53;4.47;;;16.90;78.50;;;;;;4955127;28;20665;-74
2022/04/12 12:42:02;;;;;;;5.18;3.80;;;17.10;78.00;;;;;;4955558;28;20269;-74
2022/04/12 12:44:34;;;;;;;6.82;4.28;;;16.80;78.20;;;;;;4954949;28;20590;-74
2022/04/12 12:47:02;;;;;;;11.75;4.57;;;16.80;77.50;;;;;;4954927;28;20207;-74
2022/04/12 12:49:36;;;;;;;7.82;4.30;;;16.70;77.40;;;;;;4953916;28;20210;-74
2022/04/12 12:52:04;;;;;;;5.70;4.00;;;16.80;77.40;;;;;;4954772;28;20253;-74